Time;durP1;ratioP1;P1;durP2;ratioP2;P2;SDS_P1;SDS_P2;PMS_P1;PMS_P2;Temp;Humidity;BMP_temperature;BMP_pressure;BME280_temperature;BME280_humidity;BME280_pressure;Samples;Min_cycle;Max_cycle;Signal;HPM_P1;HPM_P2
2023/07/02 00:02:06;;;;;;;2.00;1.67;;;23.20;57.10;;;;;;4985607;28;20473;-67
2023/07/02 00:04:36;;;;;;;2.57;1.77;;;23.20;56.90;;;;;;4984780;28;20519;-66
2023/07/02 00:07:05;;;;;;;1.60;1.10;;;23.20;57.00;;;;;;4984374;28;20482;-65
2023/07/02 00:09:34;;;;;;;2.10;1.37;;;23.20;57.00;;;;;;4984506;28;20470;-66
2023/07/02 00:12:02;;;;;;;1.70;1.27;;;23.20;57.00;;;;;;4985111;28;20957;-67
2023/07/02 00:14:31;;;;;;;1.90;1.60;;;23.20;57.00;;;;;;4985185;28;20466;-67
2023/07/02 00:16:59;;;;;;;2.03;1.50;;;23.20;56.80;;;;;;4992346;28;20544;-66
2023/07/02 00:19:28;;;;;;;2.73;1.73;;;23.20;56.80;;;;;;4970129;28;20465;-67
2023/07/02 00:21:58;;;;;;;2.13;1.80;;;23.20;56.90;;;;;;4984825;28;20556;-68
2023/07/02 00:24:27;;;;;;;3.83;2.10;;;23.10;56.60;;;;;;4989784;28;20473;-67
2023/07/02 00:26:56;;;;;;;3.60;1.33;;;23.20;56.80;;;;;;4989432;28;20476;-67
2023/07/02 00:29:24;;;;;;;2.50;1.93;;;23.10;56.80;;;;;;4976422;28;20501;-68
2023/07/02 00:31:53;;;;;;;2.30;1.70;;;23.20;56.90;;;;;;4985503;28;20819;-67
2023/07/02 00:34:21;;;;;;;2.73;2.00;;;23.20;56.80;;;;;;4994723;28;20484;-67
2023/07/02 00:36:53;;;;;;;2.73;1.63;;;23.20;56.70;;;;;;4987530;28;20440;-67
2023/07/02 00:39:23;;;;;;;2.60;2.20;;;23.10;56.50;;;;;;4984507;28;20905;-65
2023/07/02 00:41:51;;;;;;;2.10;1.80;;;23.10;56.40;;;;;;4986822;28;21001;-67
2023/07/02 00:44:20;;;;;;;3.27;2.30;;;23.10;56.50;;;;;;4999672;28;20472;-67
2023/07/02 00:46:51;;;;;;;2.67;1.80;;;23.10;56.30;;;;;;4972773;28;20478;-67
2023/07/02 00:49:20;;;;;;;5.63;2.60;;;23.10;56.30;;;;;;4988366;28;21036;-68
2023/07/02 00:51:49;;;;;;;2.00;1.77;;;23.10;56.20;;;;;;4988068;28;20824;-67
2023/07/02 00:54:17;;;;;;;3.00;1.80;;;23.10;56.50;;;;;;4988525;28;20470;-67
2023/07/02 00:56:48;;;;;;;3.30;2.40;;;23.10;56.30;;;;;;4989013;28;20483;-68
2023/07/02 00:59:16;;;;;;;2.70;2.23;;;23.10;56.40;;;;;;4987423;28;20484;-67
2023/07/02 01:01:49;;;;;;;3.90;2.33;;;23.10;56.20;;;;;;4996921;28;20454;-67
2023/07/02 01:04:27;;;;;;;3.20;1.73;;;23.10;56.40;;;;;;4996115;28;20551;-67
2023/07/02 01:06:58;;;;;;;5.17;1.93;;;23.10;56.40;;;;;;4987135;28;20876;-68
2023/07/02 01:09:27;;;;;;;4.40;2.10;;;23.10;57.60;;;;;;4973091;28;20457;-67
2023/07/02 01:11:59;;;;;;;5.53;2.70;;;23.10;56.20;;;;;;4988454;28;21083;-66
2023/07/02 01:14:32;;;;;;;2.90;2.30;;;23.10;56.20;;;;;;4985469;28;20569;-67
2023/07/02 01:17:03;;;;;;;3.60;2.90;;;23.10;56.40;;;;;;4988340;28;20443;-67
2023/07/02 01:19:42;;;;;;;4.03;2.97;;;23.10;56.10;;;;;;4993267;28;20682;-66
2023/07/02 01:22:12;;;;;;;6.83;3.00;;;23.00;56.20;;;;;;4980190;28;20483;-67
2023/07/02 01:24:41;;;;;;;3.33;2.70;;;23.10;56.10;;;;;;4993240;28;20472;-67
2023/07/02 01:27:10;;;;;;;3.90;2.67;;;23.00;56.20;;;;;;4987814;28;20528;-66
2023/07/02 01:29:39;;;;;;;3.67;2.40;;;23.10;56.20;;;;;;4971918;28;20480;-66
2023/07/02 01:32:08;;;;;;;3.20;2.90;;;23.00;56.10;;;;;;4995850;28;21069;-67
2023/07/02 01:34:38;;;;;;;3.87;2.60;;;23.00;56.30;;;;;;4989392;28;20503;-66
2023/07/02 01:37:10;;;;;;;4.30;2.90;;;23.00;56.00;;;;;;4987947;28;20452;-67
2023/07/02 01:39:38;;;;;;;3.57;3.03;;;23.00;56.00;;;;;;4999082;28;20468;-65
2023/07/02 01:42:12;;;;;;;4.37;2.90;;;23.00;56.00;;;;;;4990147;28;20473;-66
2023/07/02 01:44:40;;;;;;;5.33;3.33;;;23.00;56.00;;;;;;4986912;28;20483;-67
2023/07/02 01:47:09;;;;;;;6.47;3.50;;;23.00;56.10;;;;;;4988085;28;20803;-66
2023/07/02 01:49:40;;;;;;;3.90;3.50;;;23.00;55.80;;;;;;4987346;28;20464;-66
2023/07/02 01:52:09;;;;;;;5.10;3.43;;;23.00;56.00;;;;;;4987807;28;20484;-67
2023/07/02 01:54:37;;;;;;;5.10;3.70;;;23.00;57.10;;;;;;5001597;28;20469;-67
2023/07/02 01:57:06;;;;;;;4.50;3.20;;;23.00;55.90;;;;;;4988011;28;20451;-67
2023/07/02 01:59:34;;;;;;;4.37;3.50;;;23.00;55.90;;;;;;4990069;28;20994;-66
2023/07/02 02:02:03;;;;;;;4.60;3.30;;;23.00;56.10;;;;;;4972468;28;20506;-66
2023/07/02 02:04:32;;;;;;;5.67;3.80;;;23.00;56.00;;;;;;4994071;28;20499;-66
2023/07/02 02:07:02;;;;;;;4.27;3.57;;;23.00;56.00;;;;;;4985813;28;20458;-67
2023/07/02 02:09:32;;;;;;;4.13;3.57;;;22.90;55.80;;;;;;4986789;28;20503;-66
2023/07/02 02:12:00;;;;;;;4.80;4.03;;;23.00;55.90;;;;;;4979372;28;20834;-67
2023/07/02 02:14:29;;;;;;;5.30;3.77;;;22.90;55.80;;;;;;4993988;28;21886;-66
2023/07/02 02:16:58;;;;;;;3.83;2.77;;;22.90;55.90;;;;;;4986577;28;20540;-67
2023/07/02 02:19:27;;;;;;;6.00;4.23;;;22.90;55.90;;;;;;4979295;28;20532;-67
2023/07/02 02:21:56;;;;;;;4.53;3.47;;;22.90;55.70;;;;;;4978793;28;20472;-67
2023/07/02 02:24:26;;;;;;;4.87;4.23;;;22.90;55.80;;;;;;4981362;28;20560;-67
2023/07/02 02:26:56;;;;;;;4.73;3.13;;;22.90;55.60;;;;;;4991110;28;20450;-67
2023/07/02 02:29:24;;;;;;;4.73;3.83;;;22.90;55.60;;;;;;4989670;28;20540;-67
2023/07/02 02:31:53;;;;;;;6.30;4.77;;;22.90;55.80;;;;;;4989517;28;20487;-67
2023/07/02 02:34:22;;;;;;;4.77;4.20;;;22.90;55.40;;;;;;4986067;28;20887;-67
2023/07/02 02:36:50;;;;;;;5.80;5.03;;;22.90;55.70;;;;;;4985531;28;20460;-67
2023/07/02 02:39:19;;;;;;;7.17;4.50;;;22.90;55.60;;;;;;4994348;28;20473;-67
2023/07/02 02:41:48;;;;;;;4.57;4.10;;;22.90;55.50;;;;;;4987049;28;20488;-66
2023/07/02 02:44:21;;;;;;;7.23;4.43;;;22.90;55.70;;;;;;4985359;28;20517;-66
2023/07/02 02:46:50;;;;;;;5.67;4.27;;;22.90;55.60;;;;;;4986821;28;20441;-67
2023/07/02 02:49:18;;;;;;;6.50;4.20;;;22.90;55.60;;;;;;4985976;28;20547;-66
2023/07/02 02:51:47;;;;;;;6.00;4.87;;;22.90;55.70;;;;;;4985578;28;21032;-67
2023/07/02 02:54:15;;;;;;;5.10;4.40;;;22.90;55.50;;;;;;4996142;28;20913;-68
2023/07/02 02:56:43;;;;;;;5.93;4.40;;;22.80;55.40;;;;;;4991985;28;20436;-65
2023/07/02 02:59:13;;;;;;;6.30;4.80;;;22.90;55.60;;;;;;4984880;28;20466;-67
2023/07/02 03:01:42;;;;;;;8.57;5.20;;;22.80;55.50;;;;;;4986030;28;20470;-66
2023/07/02 03:04:10;;;;;;;6.43;4.47;;;22.90;55.50;;;;;;4985823;28;20494;-67
2023/07/02 03:06:40;;;;;;;6.77;4.50;;;22.80;55.60;;;;;;4990438;28;20458;-67
2023/07/02 03:09:09;;;;;;;6.47;5.13;;;22.90;55.60;;;;;;4986483;28;20493;-67
2023/07/02 03:11:37;;;;;;;5.50;4.27;;;22.80;55.30;;;;;;4992940;28;20461;-66
2023/07/02 03:14:05;;;;;;;5.80;5.13;;;22.80;55.50;;;;;;4969809;28;20865;-65
2023/07/02 03:16:35;;;;;;;6.60;5.43;;;22.80;55.50;;;;;;4990563;28;20797;-67
2023/07/02 03:19:05;;;;;;;6.43;5.40;;;22.80;55.50;;;;;;4995136;28;20565;-66
2023/07/02 03:21:34;;;;;;;6.10;4.50;;;22.80;55.40;;;;;;4970624;28;20472;-67
2023/07/02 03:24:03;;;;;;;6.30;4.97;;;22.80;55.40;;;;;;4993461;28;20473;-67
2023/07/02 03:26:31;;;;;;;5.80;4.23;;;22.80;55.60;;;;;;4983322;28;20448;-67
2023/07/02 03:28:59;;;;;;;7.57;4.93;;;22.80;55.60;;;;;;4973278;28;21076;-67
2023/07/02 03:31:28;;;;;;;5.83;4.87;;;22.80;55.60;;;;;;4978359;28;20858;-67
2023/07/02 03:33:58;;;;;;;8.03;5.70;;;22.80;55.40;;;;;;4992681;28;20491;-65
2023/07/02 03:36:26;;;;;;;5.80;5.23;;;22.80;55.30;;;;;;4995567;28;20456;-67
2023/07/02 03:38:55;;;;;;;6.13;4.30;;;22.80;55.40;;;;;;4989745;28;20883;-67
2023/07/02 03:41:24;;;;;;;6.47;5.37;;;22.80;55.40;;;;;;4985973;28;20885;-67
2023/07/02 03:43:52;;;;;;;6.63;5.70;;;22.80;55.50;;;;;;4985663;28;20569;-67
2023/07/02 03:46:21;;;;;;;9.30;5.83;;;22.80;55.40;;;;;;4997057;28;20437;-67
2023/07/02 03:48:49;;;;;;;5.10;4.47;;;22.80;55.40;;;;;;4974310;28;20469;-66
2023/07/02 03:51:20;;;;;;;8.80;5.87;;;22.80;55.40;;;;;;4985214;28;20449;-65
2023/07/02 03:53:48;;;;;;;6.53;5.83;;;22.80;55.50;;;;;;4985260;28;20476;-66
2023/07/02 03:56:17;;;;;;;7.00;5.60;;;22.80;55.50;;;;;;4988000;28;20442;-67
2023/07/02 03:58:45;;;;;;;8.60;6.43;;;22.80;55.60;;;;;;4993186;28;20612;-67
2023/07/02 04:01:16;;;;;;;6.40;5.27;;;22.70;55.50;;;;;;4979469;28;20499;-67
2023/07/02 04:03:49;;;;;;;8.60;7.27;;;22.70;55.40;;;;;;4969878;28;20477;-66
2023/07/02 04:06:20;;;;;;;9.60;6.23;;;22.70;55.50;;;;;;4991488;28;20503;-66
2023/07/02 04:08:48;;;;;;;9.27;6.93;;;22.70;55.40;;;;;;4988305;28;20476;-67
2023/07/02 04:11:17;;;;;;;7.77;5.73;;;22.70;55.50;;;;;;4987606;28;20446;-67
2023/07/02 04:13:45;;;;;;;8.63;6.40;;;22.70;55.60;;;;;;4975977;28;20484;-67
2023/07/02 04:16:14;;;;;;;7.00;5.33;;;22.70;55.60;;;;;;4990266;28;20437;-66
2023/07/02 04:18:42;;;;;;;6.90;5.93;;;22.70;55.60;;;;;;4999725;28;20447;-66
2023/07/02 04:21:11;;;;;;;10.43;7.20;;;22.70;55.60;;;;;;4988710;28;20460;-66
2023/07/02 04:23:41;;;;;;;8.90;6.20;;;22.70;55.40;;;;;;4995016;28;20461;-66
2023/07/02 04:26:10;;;;;;;9.30;6.77;;;22.70;55.50;;;;;;4989501;28;20436;-66
2023/07/02 04:28:58;;;;;;;7.80;5.90;;;22.70;55.40;;;;;;4998160;28;20475;-67
2023/07/02 04:31:27;;;;;;;7.07;6.23;;;22.70;55.60;;;;;;4989973;28;20444;-65
2023/07/02 04:33:56;;;;;;;9.13;6.47;;;22.70;55.60;;;;;;4989131;28;20464;-67
2023/07/02 04:36:24;;;;;;;8.50;6.47;;;22.70;55.60;;;;;;4996709;28;20813;-65
2023/07/02 04:38:54;;;;;;;8.10;7.07;;;22.70;55.40;;;;;;4992623;28;20551;-66
2023/07/02 04:41:23;;;;;;;7.80;6.20;;;22.70;55.50;;;;;;4994701;28;20441;-67
2023/07/02 04:43:51;;;;;;;7.63;6.53;;;22.70;55.50;;;;;;4988316;28;20562;-66
2023/07/02 04:46:20;;;;;;;7.90;6.00;;;22.70;55.40;;;;;;4989111;28;20440;-68
2023/07/02 04:48:48;;;;;;;9.73;7.27;;;22.70;55.50;;;;;;4989354;28;20469;-67
2023/07/02 04:51:17;;;;;;;8.10;5.90;;;22.60;55.40;;;;;;4988055;28;20484;-67
2023/07/02 04:53:45;;;;;;;8.97;6.50;;;22.60;55.50;;;;;;4988564;28;20509;-67
2023/07/02 04:56:15;;;;;;;10.50;8.40;;;22.70;55.60;;;;;;4988520;28;20441;-68
2023/07/02 04:58:44;;;;;;;9.20;7.27;;;22.60;55.30;;;;;;4991806;28;20499;-65
2023/07/02 05:01:12;;;;;;;11.53;8.27;;;22.70;55.40;;;;;;4996844;28;20972;-66
2023/07/02 05:03:41;;;;;;;8.60;7.23;;;22.60;55.30;;;;;;4993484;28;20501;-65
2023/07/02 05:06:10;;;;;;;7.53;6.73;;;22.60;55.40;;;;;;4997562;28;20480;-68
2023/07/02 05:08:38;;;;;;;12.07;8.73;;;22.60;55.50;;;;;;4999171;28;20427;-67
2023/07/02 05:11:09;;;;;;;10.17;7.80;;;22.60;55.40;;;;;;4988499;28;20944;-67
2023/07/02 05:13:38;;;;;;;10.23;6.50;;;22.60;55.40;;;;;;4988199;28;20458;-66
2023/07/02 05:16:07;;;;;;;7.27;6.30;;;22.60;55.40;;;;;;4988404;28;20495;-67
2023/07/02 05:18:36;;;;;;;8.87;6.87;;;22.60;55.40;;;;;;4991931;28;20472;-65
2023/07/02 05:21:04;;;;;;;9.03;7.67;;;22.60;55.40;;;;;;4987332;28;20443;-65
2023/07/02 05:23:34;;;;;;;9.03;7.37;;;22.60;55.50;;;;;;4994060;28;20469;-65
2023/07/02 05:26:03;;;;;;;11.53;7.60;;;22.60;55.40;;;;;;4987816;28;20436;-66
2023/07/02 05:28:31;;;;;;;14.13;8.87;;;22.60;55.50;;;;;;4991366;28;20467;-66
2023/07/02 05:31:01;;;;;;;9.73;7.43;;;22.60;55.40;;;;;;4991924;28;20888;-66
2023/07/02 05:33:32;;;;;;;11.10;8.67;;;22.60;55.50;;;;;;4973745;28;20548;-66
2023/07/02 05:36:00;;;;;;;8.13;6.93;;;22.60;55.40;;;;;;4994268;28;20511;-66
2023/07/02 05:38:29;;;;;;;11.30;8.33;;;22.60;55.50;;;;;;4979973;28;20468;-67
2023/07/02 05:40:57;;;;;;;8.87;7.17;;;22.60;55.50;;;;;;4995876;28;20487;-65
2023/07/02 05:43:26;;;;;;;13.17;8.67;;;22.60;55.50;;;;;;4986071;28;20477;-65
2023/07/02 05:45:54;;;;;;;9.50;8.30;;;22.60;55.50;;;;;;4972736;28;20512;-65
2023/07/02 05:48:24;;;;;;;11.37;8.20;;;22.60;55.40;;;;;;4992577;28;20451;-66
2023/07/02 05:50:52;;;;;;;11.00;7.67;;;22.60;55.40;;;;;;4987176;28;20613;-66
2023/07/02 05:53:21;;;;;;;15.70;9.77;;;22.60;55.40;;;;;;4986600;28;20474;-65
2023/07/02 05:55:50;;;;;;;13.30;9.73;;;22.60;55.30;;;;;;4983598;28;20451;-66
2023/07/02 05:58:19;;;;;;;11.70;8.40;;;22.60;55.40;;;;;;4983424;28;20440;-66
2023/07/02 06:00:54;;;;;;;10.33;8.47;;;22.60;55.50;;;;;;4978207;28;20967;-67
2023/07/02 06:03:24;;;;;;;11.23;8.93;;;22.60;55.50;;;;;;4972811;28;20471;-66
2023/07/02 06:05:52;;;;;;;11.33;8.20;;;22.50;55.30;;;;;;4985579;28;20441;-66
2023/07/02 06:08:21;;;;;;;13.00;9.23;;;22.50;55.40;;;;;;4984022;28;20445;-66
2023/07/02 06:10:50;;;;;;;15.93;9.80;;;22.50;55.40;;;;;;4979526;28;20477;-67
2023/07/02 06:13:19;;;;;;;12.63;9.93;;;22.60;55.40;;;;;;4986007;28;20996;-67
2023/07/02 06:15:48;;;;;;;13.60;9.37;;;22.50;55.40;;;;;;4986813;28;20444;-66
2023/07/02 06:18:17;;;;;;;12.00;10.43;;;22.50;55.30;;;;;;4986146;28;20461;-66
2023/07/02 06:20:47;;;;;;;12.70;9.10;;;22.50;55.30;;;;;;4986211;28;20441;-67
2023/07/02 06:23:16;;;;;;;14.83;8.77;;;22.50;55.30;;;;;;4987002;28;21091;-67
2023/07/02 06:25:45;;;;;;;10.10;8.53;;;22.50;55.30;;;;;;4984587;28;20438;-66
2023/07/02 06:28:14;;;;;;;12.23;9.23;;;22.50;55.30;;;;;;4993079;28;20428;-66
2023/07/02 06:30:42;;;;;;;11.67;8.90;;;22.50;55.40;;;;;;4970883;28;20476;-66
2023/07/02 06:33:11;;;;;;;11.47;9.20;;;22.50;55.30;;;;;;4977320;28;20482;-66
2023/07/02 06:35:39;;;;;;;15.03;9.60;;;22.50;55.30;;;;;;4994787;28;20763;-66
2023/07/02 06:38:10;;;;;;;11.73;8.53;;;22.50;55.30;;;;;;4988913;28;20519;-66
2023/07/02 06:40:38;;;;;;;13.50;10.97;;;22.50;55.40;;;;;;4990346;28;20972;-67
2023/07/02 06:43:07;;;;;;;16.83;10.77;;;22.50;55.20;;;;;;4985983;28;20472;-67
2023/07/02 06:45:36;;;;;;;13.17;9.20;;;22.50;55.30;;;;;;4971880;28;21021;-67
2023/07/02 06:48:06;;;;;;;15.40;9.87;;;22.50;55.30;;;;;;4987548;28;20589;-66
2023/07/02 06:50:34;;;;;;;11.90;9.63;;;22.50;55.30;;;;;;4992003;28;20559;-67
2023/07/02 06:53:03;;;;;;;14.30;10.60;;;22.50;55.30;;;;;;4985329;28;20541;-67
2023/07/02 06:55:33;;;;;;;11.77;10.27;;;22.50;55.20;;;;;;4992826;28;20433;-67
2023/07/02 06:58:01;;;;;;;12.47;9.30;;;22.50;55.20;;;;;;4986366;28;20445;-67
2023/07/02 07:00:35;;;;;;;14.00;11.00;;;22.50;55.20;;;;;;4984460;28;20486;-67
2023/07/02 07:03:04;;;;;;;13.63;10.07;;;22.50;55.20;;;;;;4991481;28;20503;-68
2023/07/02 07:05:33;;;;;;;12.13;10.10;;;22.50;55.20;;;;;;4976956;28;21048;-66
2023/07/02 07:08:02;;;;;;;13.80;11.00;;;22.50;55.10;;;;;;4986359;28;20457;-66
2023/07/02 07:10:33;;;;;;;16.73;12.70;;;22.40;55.00;;;;;;4985394;28;20552;-68
2023/07/02 07:13:04;;;;;;;14.03;11.43;;;22.50;54.80;;;;;;4975622;28;20528;-67
2023/07/02 07:15:35;;;;;;;13.87;10.97;;;22.50;54.80;;;;;;4988236;28;20457;-66
2023/07/02 07:18:04;;;;;;;15.70;11.87;;;22.50;55.00;;;;;;4986252;28;20878;-66
2023/07/02 07:20:33;;;;;;;17.33;12.27;;;22.50;54.90;;;;;;4988494;28;20454;-66
2023/07/02 07:23:05;;;;;;;12.57;10.60;;;22.50;54.90;;;;;;4990037;28;20494;-65
2023/07/02 07:25:33;;;;;;;12.37;9.43;;;22.50;54.80;;;;;;4979054;28;20507;-67
2023/07/02 07:28:03;;;;;;;15.23;11.17;;;22.50;54.90;;;;;;4982144;28;20899;-67
2023/07/02 07:30:32;;;;;;;14.73;11.63;;;22.50;54.80;;;;;;4985881;28;20516;-66
2023/07/02 07:33:01;;;;;;;14.80;9.90;;;22.50;54.70;;;;;;4988804;28;20468;-66
2023/07/02 07:35:29;;;;;;;12.63;10.63;;;22.50;54.60;;;;;;4991357;28;20440;-65
2023/07/02 07:37:58;;;;;;;14.53;10.80;;;22.50;54.50;;;;;;4995397;28;20450;-66
2023/07/02 07:40:27;;;;;;;17.30;10.83;;;22.40;54.50;;;;;;4983858;28;20453;-67
2023/07/02 07:42:56;;;;;;;14.57;11.10;;;22.50;54.50;;;;;;4997437;28;20459;-66
2023/07/02 07:45:26;;;;;;;14.83;10.97;;;22.40;54.30;;;;;;4995861;28;20980;-67
2023/07/02 07:47:54;;;;;;;13.73;11.07;;;22.50;54.50;;;;;;4989870;28;20457;-67
2023/07/02 07:50:23;;;;;;;14.30;11.10;;;22.50;54.40;;;;;;4984954;28;20813;-66
2023/07/02 07:52:52;;;;;;;13.50;10.87;;;22.50;54.70;;;;;;4989282;28;21011;-66
2023/07/02 07:55:21;;;;;;;12.63;9.47;;;22.50;54.50;;;;;;4994346;28;20448;-65
2023/07/02 07:57:49;;;;;;;12.37;10.27;;;22.50;54.50;;;;;;4971471;28;21098;-66
2023/07/02 08:00:20;;;;;;;16.37;12.50;;;22.40;54.30;;;;;;4991333;28;20585;-67
2023/07/02 08:02:52;;;;;;;15.13;11.20;;;22.40;54.30;;;;;;5003815;28;20478;-66
2023/07/02 08:05:20;;;;;;;14.70;12.50;;;22.50;54.20;;;;;;4992113;28;20443;-66
2023/07/02 08:07:49;;;;;;;14.20;10.63;;;22.50;54.20;;;;;;4971278;28;20924;-66
2023/07/02 08:10:18;;;;;;;15.90;11.53;;;22.40;54.50;;;;;;4987200;28;20432;-67
2023/07/02 08:12:47;;;;;;;12.27;9.63;;;22.40;54.30;;;;;;4991663;28;20463;-66
2023/07/02 08:15:16;;;;;;;13.80;10.73;;;22.50;54.60;;;;;;4987227;28;20527;-67
2023/07/02 08:17:44;;;;;;;10.83;9.67;;;22.40;54.40;;;;;;4993834;28;20813;-67
2023/07/02 08:20:14;;;;;;;14.00;11.00;;;22.40;54.50;;;;;;4983511;28;20475;-66
2023/07/02 08:22:43;;;;;;;12.70;10.80;;;22.40;54.30;;;;;;4988962;28;20471;-67
2023/07/02 08:25:11;;;;;;;11.80;10.17;;;22.40;54.40;;;;;;4984787;28;20461;-66
2023/07/02 08:27:40;;;;;;;15.93;12.47;;;22.40;54.40;;;;;;4969563;28;20533;-66
2023/07/02 08:30:09;;;;;;;16.53;11.57;;;22.40;54.30;;;;;;4984820;28;20476;-68
2023/07/02 08:32:38;;;;;;;14.37;10.77;;;22.40;54.00;;;;;;4984967;28;20509;-66
2023/07/02 08:35:07;;;;;;;14.93;11.10;;;22.40;54.40;;;;;;4982667;28;20498;-65
2023/07/02 08:37:37;;;;;;;12.80;11.47;;;22.40;54.40;;;;;;4970060;28;20484;-66
2023/07/02 08:40:17;;;;;;;15.07;12.53;;;22.40;54.30;;;;;;4968890;28;20464;-68
2023/07/02 08:42:47;;;;;;;14.63;10.60;;;22.40;54.30;;;;;;4982225;28;20889;-65
2023/07/02 08:45:17;;;;;;;13.33;11.53;;;22.30;54.10;;;;;;4969346;28;20973;-66
2023/07/02 08:47:46;;;;;;;11.10;9.17;;;22.40;54.20;;;;;;4979544;28;20457;-67
2023/07/02 08:50:15;;;;;;;16.57;11.13;;;22.40;54.40;;;;;;4993588;28;21043;-66
2023/07/02 08:52:45;;;;;;;16.40;11.77;;;22.40;54.40;;;;;;4985135;28;20614;-66
2023/07/02 08:55:13;;;;;;;13.17;10.77;;;22.40;54.10;;;;;;4993252;28;20425;-67
2023/07/02 08:57:50;;;;;;;16.67;11.67;;;22.40;54.30;;;;;;4984021;28;20479;-66
2023/07/02 09:00:20;;;;;;;13.33;10.40;;;22.30;54.20;;;;;;4986405;28;20476;-66
2023/07/02 09:02:49;;;;;;;14.53;10.60;;;22.30;54.20;;;;;;4972140;28;20460;-67
2023/07/02 09:05:18;;;;;;;12.53;10.17;;;22.30;54.30;;;;;;4975113;28;20998;-67
2023/07/02 09:07:49;;;;;;;16.90;11.77;;;22.30;54.30;;;;;;4977000;28;20437;-67
2023/07/02 09:10:30;;;;;;;14.30;10.20;;;22.30;54.20;;;;;;4991019;28;20443;-65
2023/07/02 09:13:05;;;;;;;14.20;11.33;;;22.30;54.10;;;;;;4996747;28;20468;-67
2023/07/02 09:15:38;;;;;;;14.10;10.77;;;22.30;54.30;;;;;;4986774;28;20501;-65
2023/07/02 09:18:18;;;;;;;15.10;10.87;;;22.30;54.20;;;;;;5000298;28;20796;-66
2023/07/02 09:20:47;;;;;;;13.67;10.17;;;22.30;54.10;;;;;;4969119;28;20526;-66
2023/07/02 09:23:18;;;;;;;17.13;10.20;;;22.30;54.20;;;;;;4978091;28;21050;-67
2023/07/02 09:25:47;;;;;;;13.70;11.00;;;22.30;54.10;;;;;;4990829;28;20435;-67
2023/07/02 09:28:16;;;;;;;12.17;9.77;;;22.30;53.90;;;;;;4990633;28;20738;-65
2023/07/02 09:30:56;;;;;;;13.20;10.03;;;22.30;53.80;;;;;;4988359;28;20850;-66
2023/07/02 09:33:25;;;;;;;14.13;11.07;;;22.30;53.90;;;;;;4992365;28;20476;-66
2023/07/02 09:35:55;;;;;;;17.00;11.60;;;22.30;53.90;;;;;;4990575;28;20930;-67
2023/07/02 09:38:25;;;;;;;16.40;11.60;;;22.30;53.90;;;;;;4985885;28;21008;-67
2023/07/02 09:40:55;;;;;;;15.07;12.03;;;22.30;53.90;;;;;;4987288;28;20448;-67
2023/07/02 09:43:25;;;;;;;14.47;10.33;;;22.30;53.80;;;;;;4987900;28;20464;-65
2023/07/02 09:45:56;;;;;;;13.47;9.77;;;22.30;53.90;;;;;;4991743;28;21014;-67
2023/07/02 09:48:27;;;;;;;11.47;9.67;;;22.30;54.00;;;;;;4996566;28;21006;-67
2023/07/02 09:50:59;;;;;;;16.67;10.80;;;22.30;54.00;;;;;;4986039;28;20870;-66
2023/07/02 09:53:30;;;;;;;14.10;9.40;;;22.30;53.90;;;;;;4983322;28;20500;-66
2023/07/02 09:55:59;;;;;;;17.50;12.30;;;22.30;53.70;;;;;;4983277;28;20448;-65
2023/07/02 09:58:31;;;;;;;13.77;10.10;;;22.30;53.50;;;;;;4991024;28;21030;-67
2023/07/02 10:01:00;;;;;;;14.53;10.90;;;22.30;53.60;;;;;;4987241;28;20451;-65
2023/07/02 10:03:33;;;;;;;14.27;10.67;;;22.30;53.70;;;;;;4990704;28;20478;-67
2023/07/02 10:06:06;;;;;;;14.37;9.80;;;22.30;53.90;;;;;;4999783;28;20447;-65
2023/07/02 10:08:37;;;;;;;15.40;12.00;;;22.30;54.00;;;;;;4990260;28;20502;-66
2023/07/02 10:11:12;;;;;;;15.20;10.70;;;22.30;54.00;;;;;;4983109;28;20519;-66
2023/07/02 10:13:42;;;;;;;14.43;11.47;;;22.30;53.80;;;;;;4975601;28;20491;-66
2023/07/02 10:16:10;;;;;;;15.37;11.20;;;22.30;53.90;;;;;;4987731;28;20440;-65
2023/07/02 10:18:40;;;;;;;15.80;10.80;;;22.30;53.70;;;;;;4972138;28;20440;-67
2023/07/02 10:21:16;;;;;;;15.10;11.87;;;22.30;53.70;;;;;;4992096;28;20448;-67
2023/07/02 10:23:46;;;;;;;12.20;10.63;;;22.30;53.80;;;;;;4965520;28;20460;-65
2023/07/02 10:26:16;;;;;;;14.70;11.43;;;22.30;53.80;;;;;;4996955;28;20506;-67
2023/07/02 10:28:57;;;;;;;15.13;10.60;;;22.30;53.70;;;;;;4987218;28;20470;-67
2023/07/02 10:31:26;;;;;;;15.50;11.70;;;22.30;53.30;;;;;;4979174;28;20445;-67
2023/07/02 10:33:55;;;;;;;12.90;11.10;;;22.30;53.50;;;;;;4990623;28;20463;-66
2023/07/02 10:36:25;;;;;;;13.23;9.77;;;22.30;53.40;;;;;;4981728;28;20480;-68
2023/07/02 10:39:04;;;;;;;12.50;10.27;;;22.30;53.20;;;;;;4986209;28;20464;-67
2023/07/02 10:41:33;;;;;;;12.20;10.47;;;22.30;53.10;;;;;;4986800;28;20443;-66
2023/07/02 10:44:09;;;;;;;12.90;10.83;;;22.30;53.10;;;;;;4979906;28;20483;-67
2023/07/02 10:46:45;;;;;;;14.37;10.30;;;22.30;53.20;;;;;;4989442;28;20987;-67
2023/07/02 10:49:14;;;;;;;12.87;9.93;;;22.30;53.20;;;;;;4985607;28;20977;-66
2023/07/02 10:51:43;;;;;;;15.00;10.07;;;22.30;53.50;;;;;;4987100;28;20496;-67
2023/07/02 10:54:17;;;;;;;14.77;11.33;;;22.30;53.00;;;;;;4985761;28;20482;-73
2023/07/02 10:56:48;;;;;;;13.80;10.30;;;22.30;53.20;;;;;;4970374;28;20449;-72
2023/07/02 10:59:25;;;;;;;12.97;9.50;;;22.30;53.10;;;;;;4971832;28;20476;-72
2023/07/02 11:01:55;;;;;;;12.37;9.80;;;22.30;52.90;;;;;;4970514;28;20891;-73
2023/07/02 11:04:24;;;;;;;15.07;10.20;;;22.30;53.10;;;;;;4989508;28;20538;-73
2023/07/02 11:06:53;;;;;;;12.30;10.23;;;22.30;53.10;;;;;;4991108;28;20443;-72
2023/07/02 11:09:24;;;;;;;11.97;10.03;;;22.30;53.20;;;;;;4987239;28;20493;-71
2023/07/02 11:11:54;;;;;;;17.43;11.83;;;22.30;53.50;;;;;;4993888;28;20562;-73
2023/07/02 11:14:30;;;;;;;18.27;12.40;;;22.50;50.00;;;;;;4983413;28;20474;-72
2023/07/02 11:17:02;;;;;;;15.23;11.47;;;22.30;50.60;;;;;;4969580;28;20885;-71
2023/07/02 11:19:31;;;;;;;15.20;12.07;;;22.30;50.80;;;;;;4984789;28;20470;-72
2023/07/02 11:22:02;;;;;;;15.53;10.80;;;22.30;50.70;;;;;;4983988;28;20538;-73
2023/07/02 11:24:34;;;;;;;18.43;11.97;;;22.30;50.60;;;;;;4985266;28;20528;-72
2023/07/02 11:27:06;;;;;;;16.53;12.10;;;22.20;50.70;;;;;;4971991;28;20523;-71
2023/07/02 11:29:36;;;;;;;19.30;12.57;;;22.30;51.20;;;;;;4984769;28;20480;-72
2023/07/02 11:32:09;;;;;;;15.37;12.23;;;22.30;51.40;;;;;;4996523;28;20560;-72
2023/07/02 11:34:39;;;;;;;15.90;9.90;;;22.30;51.50;;;;;;4978796;28;20515;-73
2023/07/02 11:37:07;;;;;;;12.93;10.63;;;22.30;51.50;;;;;;4984984;28;20443;-72
2023/07/02 11:39:37;;;;;;;17.73;12.40;;;22.30;51.50;;;;;;4984039;28;20815;-72
2023/07/02 11:42:07;;;;;;;14.10;11.40;;;22.30;51.60;;;;;;4985417;28;20472;-72
2023/07/02 11:44:35;;;;;;;14.57;10.97;;;22.30;51.60;;;;;;4998630;28;20464;-73
2023/07/02 11:47:04;;;;;;;16.60;11.00;;;22.30;51.40;;;;;;4992540;28;20812;-72
2023/07/02 11:49:33;;;;;;;12.47;10.70;;;22.30;51.50;;;;;;4976690;28;20472;-73
2023/07/02 11:52:02;;;;;;;13.97;10.50;;;22.30;51.30;;;;;;4990593;28;20475;-72
2023/07/02 11:54:31;;;;;;;13.70;10.70;;;22.30;51.50;;;;;;4983752;28;21074;-73
2023/07/02 11:57:01;;;;;;;16.27;11.20;;;22.30;51.20;;;;;;4985245;28;20877;-71
2023/07/02 11:59:29;;;;;;;14.57;10.53;;;22.30;51.60;;;;;;4995394;28;20547;-73
2023/07/02 12:01:58;;;;;;;11.90;10.60;;;22.30;51.40;;;;;;4995622;28;20488;-72
2023/07/02 12:04:26;;;;;;;16.07;11.50;;;22.30;51.60;;;;;;4970540;28;20511;-72
2023/07/02 12:06:55;;;;;;;16.60;12.17;;;22.30;51.00;;;;;;4990971;28;20455;-72
2023/07/02 12:09:23;;;;;;;15.50;11.23;;;22.30;51.40;;;;;;4986292;28;20468;-73
2023/07/02 12:11:52;;;;;;;14.70;10.67;;;22.30;51.30;;;;;;4979705;28;20880;-73
2023/07/02 12:14:22;;;;;;;13.10;10.60;;;22.30;51.50;;;;;;4986643;28;20842;-73
2023/07/02 12:16:50;;;;;;;13.00;10.23;;;22.30;51.50;;;;;;4970089;28;20493;-73
2023/07/02 12:19:19;;;;;;;12.53;10.07;;;22.30;51.50;;;;;;4988338;28;20497;-72
2023/07/02 12:21:47;;;;;;;13.90;11.10;;;22.30;51.60;;;;;;4985084;28;20465;-72
2023/07/02 12:24:16;;;;;;;14.00;10.73;;;22.40;51.60;;;;;;4967910;28;20499;-72
2023/07/02 12:26:44;;;;;;;13.77;10.90;;;22.40;51.60;;;;;;4977004;28;20454;-71
2023/07/02 12:29:13;;;;;;;11.70;9.63;;;22.30;51.50;;;;;;4980094;28;20472;-72
2023/07/02 12:31:43;;;;;;;12.83;11.03;;;22.40;51.60;;;;;;4993270;28;20545;-73
2023/07/02 12:34:11;;;;;;;14.37;9.80;;;22.40;51.60;;;;;;4983957;28;20472;-72
2023/07/02 12:36:40;;;;;;;13.13;10.50;;;22.40;51.60;;;;;;4985885;28;20499;-73
2023/07/02 12:39:09;;;;;;;11.53;10.07;;;22.30;51.70;;;;;;4988062;28;20505;-72
2023/07/02 12:41:37;;;;;;;14.00;10.70;;;22.40;51.60;;;;;;4990385;28;20506;-72
2023/07/02 12:44:06;;;;;;;15.20;11.50;;;22.40;51.60;;;;;;4994819;28;20457;-72
2023/07/02 12:46:34;;;;;;;11.57;9.60;;;22.40;51.60;;;;;;4993318;28;20468;-73
2023/07/02 12:49:04;;;;;;;18.10;10.27;;;22.40;51.60;;;;;;4985881;28;20976;-73